createdAt,value
2023-05-24T00:01:56.702Z,19.42
2023-05-24T00:04:25.160Z,18.45
2023-05-24T00:06:54.722Z,19.05
2023-05-24T00:09:21.879Z,17.83
2023-05-24T00:11:48.771Z,17.85
2023-05-24T00:14:16.074Z,18.00
2023-05-24T00:16:42.929Z,17.77
2023-05-24T00:19:11.275Z,18.42
2023-05-24T00:21:38.353Z,18.20
2023-05-24T00:24:05.179Z,17.70
2023-05-24T00:26:31.866Z,17.48
2023-05-24T00:28:58.836Z,19.42
2023-05-24T00:31:25.533Z,17.85
2023-05-24T00:33:52.237Z,18.20
2023-05-24T00:36:18.993Z,17.92
2023-05-24T00:38:48.059Z,18.10
2023-05-24T00:41:16.394Z,16.95
2023-05-24T00:43:46.040Z,18.08
2023-05-24T00:46:20.520Z,17.70
2023-05-24T00:48:49.471Z,16.42
2023-05-24T00:51:17.533Z,17.05
2023-05-24T00:53:46.862Z,17.55
2023-05-24T00:56:15.399Z,17.27
2023-05-24T00:58:42.375Z,16.65
2023-05-24T01:01:10.966Z,16.88
2023-05-24T01:03:37.935Z,17.60
2023-05-24T01:06:07.160Z,16.23
2023-05-24T01:08:39.933Z,17.20
2023-05-24T01:11:29.071Z,17.35
2023-05-24T01:14:21.169Z,16.65
2023-05-24T01:17:20.723Z,18.48
2023-05-24T01:19:59.800Z,17.52
2023-05-24T01:23:08.532Z,16.95
2023-05-24T01:25:58.636Z,18.65
2023-05-24T01:28:26.983Z,17.42
2023-05-24T01:30:55.465Z,17.63
2023-05-24T01:33:23.702Z,17.35
2023-05-24T01:35:50.418Z,16.77
2023-05-24T01:38:17.177Z,17.33
2023-05-24T01:40:47.047Z,17.15
2023-05-24T01:43:31.514Z,17.45
2023-05-24T01:46:22.753Z,18.02
2023-05-24T01:49:23.200Z,19.05
2023-05-24T01:51:55.236Z,19.38
2023-05-24T01:54:24.651Z,21.13
2023-05-24T01:56:54.069Z,20.80
2023-05-24T01:59:22.524Z,20.13
2023-05-24T02:01:50.073Z,21.17
2023-05-24T02:04:17.580Z,21.13
2023-05-24T02:06:44.829Z,21.45
2023-05-24T02:09:11.539Z,20.23
2023-05-24T02:11:38.360Z,20.55
2023-05-24T02:14:05.010Z,22.23
2023-05-24T02:16:31.724Z,22.10
2023-05-24T02:18:58.546Z,20.45
2023-05-24T02:21:25.801Z,20.48
2023-05-24T02:23:52.639Z,20.63
2023-05-24T02:26:19.488Z,19.73
2023-05-24T02:28:46.247Z,21.88
2023-05-24T02:31:12.907Z,20.73
2023-05-24T02:33:40.412Z,22.65
2023-05-24T02:36:07.111Z,22.08
2023-05-24T02:38:33.761Z,22.00
2023-05-24T02:41:00.564Z,22.02
2023-05-24T02:43:27.208Z,23.80
2023-05-24T02:45:53.897Z,22.50
2023-05-24T02:48:20.575Z,23.92
2023-05-24T02:50:47.382Z,21.83
2023-05-24T02:53:14.110Z,22.95
2023-05-24T02:55:43.987Z,23.67
2023-05-24T02:58:12.057Z,24.73
2023-05-24T03:00:38.783Z,23.55
2023-05-24T03:03:06.172Z,22.63
2023-05-24T03:05:33.203Z,22.88
2023-05-24T03:08:00.227Z,22.88
2023-05-24T03:10:26.944Z,22.27
2023-05-24T03:12:53.598Z,24.13
2023-05-24T03:15:20.316Z,23.30
2023-05-24T03:17:47.442Z,23.08
2023-05-24T03:20:15.782Z,22.48
2023-05-24T03:22:42.523Z,23.17
2023-05-24T03:25:09.644Z,22.67
2023-05-24T03:27:36.574Z,24.10
2023-05-24T03:30:03.793Z,23.42
2023-05-24T03:32:35.238Z,22.92
2023-05-24T03:35:02.614Z,22.95
2023-05-24T03:37:29.280Z,22.27
2023-05-24T03:39:56.150Z,23.02
2023-05-24T03:42:34.435Z,21.10
2023-05-24T03:45:01.515Z,21.35
2023-05-24T03:47:28.210Z,20.35
2023-05-24T03:49:54.900Z,23.15
2023-05-24T03:52:21.617Z,22.50
2023-05-24T03:54:49.188Z,21.83
2023-05-24T03:57:15.953Z,21.75
2023-05-24T03:59:43.043Z,20.60
2023-05-24T04:02:09.932Z,20.52
2023-05-24T04:04:39.414Z,21.15
2023-05-24T04:07:06.089Z,21.83
2023-05-24T04:09:32.829Z,19.75
2023-05-24T04:11:59.519Z,19.52
2023-05-24T04:14:26.184Z,19.30
2023-05-24T04:16:53.787Z,19.77
2023-05-24T04:19:20.562Z,19.60
2023-05-24T04:21:47.228Z,20.42
2023-05-24T04:24:13.924Z,18.85
2023-05-24T04:26:43.415Z,18.95
2023-05-24T04:29:10.157Z,19.27
2023-05-24T04:31:37.053Z,19.52
2023-05-24T04:34:07.513Z,18.10
2023-05-24T04:36:35.499Z,18.73
2023-05-24T04:39:04.855Z,18.70
2023-05-24T04:41:32.253Z,20.52
2023-05-24T04:44:01.793Z,20.35
2023-05-24T04:46:28.934Z,21.30
2023-05-24T04:48:55.676Z,22.17
2023-05-24T04:51:23.381Z,21.05
2023-05-24T04:53:50.148Z,22.42
2023-05-24T04:56:17.481Z,20.08
2023-05-24T04:58:44.149Z,21.15
2023-05-24T05:01:10.931Z,20.52
2023-05-24T05:03:37.727Z,20.63
2023-05-24T05:06:04.846Z,20.35
2023-05-24T05:08:31.533Z,20.08
2023-05-24T05:10:58.677Z,20.10
2023-05-24T05:13:25.380Z,19.88
2023-05-24T05:15:52.503Z,19.38
2023-05-24T05:18:19.461Z,20.58
2023-05-24T05:20:46.613Z,21.33
2023-05-24T05:23:13.576Z,20.40
2023-05-24T05:25:40.285Z,21.35
2023-05-24T05:28:06.931Z,21.17
2023-05-24T05:30:33.732Z,20.80
2023-05-24T05:33:00.473Z,22.77
2023-05-24T05:35:27.317Z,21.83
2023-05-24T05:37:53.990Z,24.23
2023-05-24T05:40:20.771Z,25.98
2023-05-24T05:42:47.542Z,24.08
2023-05-24T05:45:14.381Z,24.73
2023-05-24T05:47:41.178Z,24.17
2023-05-24T05:50:08.208Z,24.67
2023-05-24T05:52:35.867Z,25.85
2023-05-24T05:55:02.625Z,26.30
2023-05-24T05:57:29.279Z,27.27
2023-05-24T05:59:55.983Z,28.67
2023-05-24T06:02:22.860Z,30.23
2023-05-24T06:04:50.074Z,29.83
2023-05-24T06:07:16.970Z,28.40
2023-05-24T06:09:43.699Z,29.23
2023-05-24T06:12:10.560Z,29.55
2023-05-24T06:14:38.379Z,29.88
2023-05-24T06:17:06.149Z,31.73
2023-05-24T06:19:33.048Z,30.55
2023-05-24T06:21:59.905Z,30.83
2023-05-24T06:24:28.459Z,31.05
2023-05-24T06:26:55.738Z,32.88
2023-05-24T06:29:22.719Z,31.75
2023-05-24T06:31:50.221Z,31.90
2023-05-24T06:34:20.906Z,30.13
2023-05-24T06:36:48.496Z,33.22
2023-05-24T06:39:16.123Z,32.50
2023-05-24T06:41:44.307Z,32.95
2023-05-24T06:44:11.029Z,32.03
2023-05-24T06:46:37.750Z,29.90
2023-05-24T06:49:04.523Z,32.15
2023-05-24T06:51:33.609Z,29.80
2023-05-24T06:54:00.472Z,29.88
2023-05-24T06:56:27.259Z,27.98
2023-05-24T06:58:53.901Z,31.50
2023-05-24T07:01:22.205Z,28.73
2023-05-24T07:03:49.061Z,29.75
2023-05-24T07:06:16.368Z,29.13
2023-05-24T07:08:43.037Z,30.52
2023-05-24T07:11:10.051Z,28.65
2023-05-24T07:13:36.848Z,31.73
2023-05-24T07:16:03.631Z,31.90
2023-05-24T07:18:30.799Z,34.42
2023-05-24T07:20:57.478Z,34.90
2023-05-24T07:23:24.229Z,32.30
2023-05-24T07:25:51.133Z,33.00
2023-05-24T07:28:20.005Z,33.95
2023-05-24T07:30:47.006Z,34.15
2023-05-24T07:33:13.853Z,32.80
2023-05-24T07:35:41.656Z,32.58
2023-05-24T07:38:08.377Z,32.03
2023-05-24T07:40:35.320Z,34.38
2023-05-24T07:43:03.898Z,32.92
2023-05-24T07:45:31.742Z,32.47
2023-05-24T07:47:58.624Z,31.55
2023-05-24T07:50:26.338Z,32.40
2023-05-24T07:52:53.012Z,33.55
2023-05-24T07:55:19.856Z,32.67
2023-05-24T07:57:46.630Z,32.63
2023-05-24T08:00:16.499Z,30.70
2023-05-24T08:02:46.255Z,32.30
2023-05-24T08:05:13.549Z,32.22
2023-05-24T08:07:42.210Z,32.15
2023-05-24T08:10:14.055Z,31.35
2023-05-24T08:12:42.081Z,34.47
2023-05-24T08:15:09.172Z,32.03
2023-05-24T08:17:36.477Z,31.08
2023-05-24T08:20:08.457Z,29.13
2023-05-24T08:22:35.986Z,32.25
2023-05-24T08:25:03.582Z,30.90
2023-05-24T08:27:30.513Z,31.15
2023-05-24T08:29:57.418Z,32.47
2023-05-24T08:32:24.168Z,30.35
2023-05-24T08:34:51.187Z,31.60
2023-05-24T08:37:22.496Z,31.85
2023-05-24T08:39:49.484Z,32.30
2023-05-24T08:42:16.656Z,33.00
2023-05-24T08:44:56.019Z,31.85
2023-05-24T08:47:22.885Z,30.80
2023-05-24T08:49:51.859Z,31.67
2023-05-24T08:52:20.868Z,32.47
2023-05-24T08:54:49.685Z,32.72
2023-05-24T08:57:17.454Z,34.00
2023-05-24T08:59:44.603Z,32.05
2023-05-24T09:02:13.873Z,30.95
2023-05-24T09:04:44.116Z,31.42
2023-05-24T09:07:13.660Z,31.33
2023-05-24T09:09:45.153Z,32.85
2023-05-24T09:12:21.865Z,32.85
2023-05-24T09:14:56.049Z,33.03
2023-05-24T09:17:23.505Z,32.90
2023-05-24T09:19:53.009Z,33.13
2023-05-24T09:22:23.358Z,30.75
2023-05-24T09:24:50.400Z,33.92
2023-05-24T09:27:18.380Z,33.85
2023-05-24T09:29:48.706Z,31.67
2023-05-24T09:32:21.904Z,31.35
2023-05-24T09:34:48.821Z,31.70
2023-05-24T09:37:17.687Z,32.00
2023-05-24T09:39:47.997Z,31.95
2023-05-24T09:42:21.100Z,32.97
2023-05-24T09:45:07.595Z,30.60
2023-05-24T09:47:35.461Z,28.65
2023-05-24T09:50:03.632Z,30.20
2023-05-24T09:52:30.465Z,29.00
2023-05-24T09:54:57.143Z,28.60
2023-05-24T09:57:25.748Z,28.50
2023-05-24T09:59:52.938Z,29.10
2023-05-24T10:02:22.874Z,28.92
2023-05-24T10:05:00.104Z,28.80
2023-05-24T10:07:27.341Z,29.88
2023-05-24T10:09:55.147Z,32.15
2023-05-24T10:12:23.243Z,32.10
2023-05-24T10:14:51.973Z,30.88
2023-05-24T10:17:18.875Z,28.73
2023-05-24T10:19:46.182Z,27.23
2023-05-24T10:22:15.745Z,27.05
2023-05-24T10:24:47.975Z,25.75
2023-05-24T10:27:19.291Z,28.10
2023-05-24T10:29:59.237Z,24.60
2023-05-24T10:32:31.452Z,26.70
2023-05-24T10:34:59.658Z,27.65
2023-05-24T10:37:26.910Z,27.33
2023-05-24T10:39:53.784Z,26.27
2023-05-24T10:42:21.298Z,28.52
2023-05-24T10:44:48.021Z,26.73
2023-05-24T10:47:16.784Z,26.38
2023-05-24T10:49:52.324Z,24.27
2023-05-24T10:52:19.379Z,25.98
2023-05-24T10:55:05.450Z,26.00
2023-05-24T10:57:32.943Z,24.20
2023-05-24T11:00:27.132Z,24.77
2023-05-24T11:03:09.001Z,25.45
2023-05-24T11:05:57.051Z,25.75
2023-05-24T11:08:36.320Z,26.20
2023-05-24T11:11:22.452Z,26.05
2023-05-24T11:13:57.760Z,23.83
2023-05-24T11:16:38.784Z,23.95
2023-05-24T11:19:38.817Z,22.77
2023-05-24T11:22:09.090Z,23.40
2023-05-24T11:24:36.822Z,23.60
2023-05-24T11:27:04.301Z,21.58
2023-05-24T11:29:31.302Z,21.40
2023-05-24T11:32:05.422Z,23.58
2023-05-24T11:34:33.106Z,22.60
2023-05-24T11:37:01.905Z,25.88
2023-05-24T11:39:32.396Z,22.90
2023-05-24T11:42:00.235Z,27.42
2023-05-24T11:44:29.928Z,28.00
2023-05-24T11:47:05.546Z,23.48
2023-05-24T11:49:32.327Z,23.92
2023-05-24T11:51:59.609Z,24.00
2023-05-24T11:54:31.701Z,23.33
2023-05-24T11:56:58.502Z,26.15
2023-05-24T11:59:29.312Z,25.55
2023-05-24T12:02:07.843Z,25.23
2023-05-24T12:04:35.290Z,25.67
2023-05-24T12:07:03.017Z,25.98
2023-05-24T12:09:30.017Z,22.88
2023-05-24T12:11:58.683Z,23.15
2023-05-24T12:14:30.910Z,27.15
2023-05-24T12:16:58.334Z,23.25
2023-05-24T12:19:33.667Z,23.27
2023-05-24T12:22:05.807Z,22.30
2023-05-24T12:24:32.779Z,21.73
2023-05-24T12:27:01.856Z,21.35
2023-05-24T12:29:36.372Z,22.55
2023-05-24T12:34:30.740Z,24.95
2023-05-24T12:36:57.675Z,25.42
2023-05-24T12:39:31.810Z,27.15
2023-05-24T12:42:01.504Z,24.45
2023-05-24T12:44:31.310Z,26.13
2023-05-24T12:46:58.991Z,27.33
2023-05-24T12:49:26.744Z,26.98
2023-05-24T12:51:55.595Z,28.50
2023-05-24T12:54:31.634Z,24.88
2023-05-24T12:57:03.052Z,27.13
2023-05-24T12:59:29.866Z,27.00
2023-05-24T13:01:56.781Z,28.52
2023-05-24T13:04:26.027Z,25.45
2023-05-24T13:06:53.122Z,26.77
2023-05-24T13:09:21.995Z,30.83
2023-05-24T13:11:49.260Z,29.52
2023-05-24T13:14:16.726Z,27.60
2023-05-24T13:16:44.061Z,28.20
2023-05-24T13:19:11.554Z,28.48
2023-05-24T13:21:39.007Z,28.67
2023-05-24T13:24:06.514Z,28.75
2023-05-24T13:26:37.172Z,31.13
2023-05-24T13:31:37.830Z,30.52
2023-05-24T13:34:06.138Z,33.90
2023-05-24T13:36:33.433Z,30.48
2023-05-24T13:39:13.870Z,28.52
2023-05-24T13:41:42.488Z,28.85
2023-05-24T13:44:09.948Z,28.30
2023-05-24T13:46:37.629Z,28.33
2023-05-24T13:49:05.119Z,28.85
2023-05-24T13:51:32.841Z,29.05
2023-05-24T13:53:59.786Z,29.80
2023-05-24T13:56:32.376Z,29.27
2023-05-24T13:59:03.388Z,29.63
2023-05-24T14:01:30.981Z,29.73
2023-05-24T14:03:58.549Z,30.05
2023-05-24T14:06:25.300Z,29.02
2023-05-24T14:08:52.321Z,27.15
2023-05-24T14:11:19.650Z,28.30
2023-05-24T14:16:16.958Z,28.27
2023-05-24T14:18:43.821Z,26.75
2023-05-24T14:21:10.618Z,24.05
2023-05-24T14:23:37.433Z,25.95
2023-05-24T14:26:04.095Z,24.40
2023-05-24T14:28:30.809Z,22.27
2023-05-24T14:30:58.061Z,22.52
2023-05-24T14:33:24.885Z,23.05
2023-05-24T14:35:51.893Z,22.80
2023-05-24T14:38:18.671Z,23.02
2023-05-24T14:40:47.956Z,21.88
2023-05-24T14:43:14.734Z,22.33
2023-05-24T14:45:42.236Z,20.38
2023-05-24T14:48:11.262Z,22.05
2023-05-24T14:50:39.289Z,19.45
2023-05-24T14:53:11.671Z,20.73
2023-05-24T14:55:40.831Z,19.50
2023-05-24T14:58:13.986Z,19.50
2023-05-24T15:00:42.235Z,23.63
2023-05-24T15:03:09.469Z,23.25
2023-05-24T15:05:36.454Z,24.75
2023-05-24T15:08:05.326Z,27.63
2023-05-24T15:10:32.172Z,31.30
2023-05-24T15:12:59.208Z,31.45
2023-05-24T15:15:25.854Z,33.70
2023-05-24T15:17:52.610Z,31.92
2023-05-24T15:20:19.727Z,30.65
2023-05-24T15:22:46.628Z,32.90
2023-05-24T15:25:13.509Z,33.67
2023-05-24T15:27:40.166Z,32.97
2023-05-24T15:30:07.696Z,30.45
2023-05-24T15:32:34.480Z,28.75
2023-05-24T15:35:01.466Z,28.40
2023-05-24T15:37:28.184Z,27.58
2023-05-24T15:39:54.915Z,26.48
2023-05-24T15:42:23.516Z,26.92
2023-05-24T15:44:50.506Z,26.35
2023-05-24T15:47:17.835Z,26.38
2023-05-24T15:49:45.357Z,25.73
2023-05-24T15:52:12.174Z,25.35
2023-05-24T15:54:39.096Z,25.10
2023-05-24T15:57:06.263Z,24.92
2023-05-24T15:59:35.165Z,24.98
2023-05-24T16:02:01.858Z,24.45
2023-05-24T16:04:29.171Z,24.98
2023-05-24T16:06:55.891Z,24.52
2023-05-24T16:09:22.631Z,26.08
2023-05-24T16:11:49.458Z,27.00
2023-05-24T16:14:16.629Z,25.52
2023-05-24T16:16:46.205Z,26.60
2023-05-24T16:19:12.902Z,24.63
2023-05-24T16:21:39.633Z,25.95
2023-05-24T16:24:06.806Z,26.30
2023-05-24T16:26:33.576Z,25.05
2023-05-24T16:29:01.683Z,25.08
2023-05-24T16:31:29.590Z,25.35
2023-05-24T16:33:57.121Z,25.60
2023-05-24T16:36:24.308Z,26.42
2023-05-24T16:38:50.953Z,25.65
2023-05-24T16:41:18.195Z,24.67
2023-05-24T16:43:44.952Z,27.35
2023-05-24T16:46:11.714Z,28.10
2023-05-24T16:48:38.924Z,28.27
2023-05-24T16:51:05.745Z,28.27
2023-05-24T16:53:32.644Z,26.98
2023-05-24T16:55:59.402Z,28.33
2023-05-24T16:58:28.350Z,28.15
2023-05-24T17:00:55.359Z,28.65
2023-05-24T17:03:27.548Z,27.17
2023-05-24T17:05:56.522Z,29.48
2023-05-24T17:08:25.600Z,30.38
2023-05-24T17:10:55.990Z,30.92
2023-05-24T17:13:23.577Z,29.77
2023-05-24T17:15:55.115Z,31.23
2023-05-24T17:18:29.619Z,31.85
2023-05-24T17:21:01.634Z,31.10
2023-05-24T17:23:34.769Z,33.05
2023-05-24T17:26:02.571Z,31.83
2023-05-24T17:28:29.896Z,30.58
2023-05-24T17:30:58.553Z,31.35
2023-05-24T17:33:27.893Z,30.98
2023-05-24T17:36:00.762Z,31.15
2023-05-24T17:38:28.509Z,30.50
2023-05-24T17:40:59.549Z,29.65
2023-05-24T17:43:31.832Z,29.33
2023-05-24T17:46:04.122Z,30.50
2023-05-24T17:48:41.194Z,30.70
2023-05-24T17:51:09.854Z,32.03
2023-05-24T17:53:38.135Z,31.88
2023-05-24T17:56:06.565Z,30.67
2023-05-24T17:58:35.717Z,31.00
2023-05-24T18:01:05.279Z,31.25
2023-05-24T18:03:32.571Z,30.52
2023-05-24T18:05:59.776Z,30.77
2023-05-24T18:08:26.537Z,30.25
2023-05-24T18:10:53.225Z,30.55
2023-05-24T18:13:19.972Z,30.88
2023-05-24T18:15:46.761Z,30.33
2023-05-24T18:18:13.630Z,29.73
2023-05-24T18:20:40.660Z,29.23
2023-05-24T18:23:07.435Z,30.42
2023-05-24T18:25:34.529Z,30.27
2023-05-24T18:28:01.925Z,28.45
2023-05-24T18:30:28.582Z,29.23
2023-05-24T18:33:06.853Z,28.30
2023-05-24T18:35:35.098Z,27.45
2023-05-24T18:38:01.869Z,27.63
2023-05-24T18:40:28.523Z,27.63
2023-05-24T18:42:55.389Z,28.83
2023-05-24T18:45:22.647Z,27.50
2023-05-24T18:47:49.380Z,29.02
2023-05-24T18:50:16.178Z,27.95
2023-05-24T18:52:42.853Z,28.02
2023-05-24T18:55:12.351Z,29.02
2023-05-24T18:57:39.461Z,28.15
2023-05-24T19:00:07.050Z,27.00
2023-05-24T19:02:38.741Z,28.52
2023-05-24T19:05:07.156Z,28.02
2023-05-24T19:07:35.339Z,28.63
2023-05-24T19:10:02.770Z,28.48
2023-05-24T19:12:30.060Z,28.20
2023-05-24T19:14:56.895Z,27.92
2023-05-24T19:17:24.693Z,27.88
2023-05-24T19:19:51.698Z,27.80
2023-05-24T19:22:18.467Z,27.95
2023-05-24T19:24:45.284Z,28.42
2023-05-24T19:27:12.103Z,26.42
2023-05-24T19:29:39.750Z,28.02
2023-05-24T19:32:07.332Z,28.88
2023-05-24T19:34:36.926Z,27.75
2023-05-24T19:37:04.070Z,27.05
2023-05-24T19:39:30.931Z,27.27
2023-05-24T19:41:57.656Z,29.65
2023-05-24T19:44:24.700Z,30.33
2023-05-24T19:46:51.727Z,30.08
2023-05-24T19:49:18.464Z,29.02
2023-05-24T19:51:45.170Z,28.05
2023-05-24T19:54:12.731Z,29.27
2023-05-24T19:56:39.495Z,31.65
2023-05-24T19:59:06.303Z,26.75
2023-05-24T20:01:33.313Z,27.65
2023-05-24T20:04:00.071Z,27.52
2023-05-24T20:06:27.395Z,29.02
2023-05-24T20:08:57.610Z,28.73
2023-05-24T20:11:26.987Z,30.73
2023-05-24T20:13:55.712Z,29.48
2023-05-24T20:16:23.339Z,30.13
2023-05-24T20:18:50.122Z,29.30
2023-05-24T20:21:20.467Z,29.52
2023-05-24T20:23:47.113Z,30.92
2023-05-24T20:26:14.354Z,31.10
2023-05-24T20:28:40.995Z,30.92
2023-05-24T20:31:07.696Z,30.20
2023-05-24T20:33:37.911Z,30.83
2023-05-24T20:36:05.390Z,30.38
2023-05-24T20:38:32.178Z,29.55
2023-05-24T20:40:59.517Z,28.10
2023-05-24T20:43:26.365Z,26.02
2023-05-24T20:45:53.095Z,26.65
2023-05-24T20:48:20.016Z,27.90
2023-05-24T20:50:46.948Z,26.90
2023-05-24T20:53:13.598Z,28.42
2023-05-24T20:55:40.294Z,27.42
2023-05-24T20:58:06.988Z,29.42
2023-05-24T21:00:33.720Z,29.65
2023-05-24T21:03:00.420Z,29.52
2023-05-24T21:05:27.150Z,29.00
2023-05-24T21:07:53.829Z,27.98
2023-05-24T21:10:20.550Z,29.77
2023-05-24T21:12:48.322Z,31.02
2023-05-24T21:15:15.199Z,31.70
2023-05-24T21:17:41.943Z,31.35
2023-05-24T21:20:09.185Z,30.77
2023-05-24T21:22:35.937Z,32.08
2023-05-24T21:25:02.634Z,31.15
2023-05-24T21:27:29.384Z,32.63
2023-05-24T21:29:56.136Z,31.23
2023-05-24T21:32:22.810Z,29.55
2023-05-24T21:34:49.816Z,30.00
2023-05-24T21:37:17.246Z,29.73
2023-05-24T21:39:44.610Z,30.45
2023-05-24T21:42:11.410Z,30.15
2023-05-24T21:44:38.263Z,30.50
2023-05-24T21:47:05.391Z,30.92
2023-05-24T21:49:32.064Z,29.83
2023-05-24T21:51:58.729Z,31.15
2023-05-24T21:54:25.654Z,31.98
2023-05-24T21:56:52.320Z,30.00
2023-05-24T21:59:18.984Z,31.70
2023-05-24T22:01:45.847Z,32.30
2023-05-24T22:04:12.789Z,31.45
2023-05-24T22:06:41.354Z,32.70
2023-05-24T22:09:11.572Z,32.03
2023-05-24T22:11:38.324Z,33.72
2023-05-24T22:14:05.026Z,29.45
2023-05-24T22:16:31.776Z,31.33
2023-05-24T22:18:58.505Z,31.85
2023-05-24T22:21:26.015Z,32.08
2023-05-24T22:23:52.687Z,30.60
2023-05-24T22:26:19.323Z,27.90
2023-05-24T22:28:53.357Z,30.27
2023-05-24T22:31:21.350Z,33.40
2023-05-24T22:33:49.386Z,31.08
2023-05-24T22:36:16.122Z,30.23
2023-05-24T22:38:43.883Z,30.63
2023-05-24T22:41:10.904Z,30.52
2023-05-24T22:43:37.713Z,28.65
2023-05-24T22:46:07.595Z,30.30
2023-05-24T22:48:35.789Z,29.80
2023-05-24T22:51:02.527Z,29.70
2023-05-24T22:53:29.543Z,29.58
2023-05-24T22:55:56.232Z,28.70
2023-05-24T22:58:24.664Z,28.27
2023-05-24T23:00:51.766Z,30.98
2023-05-24T23:03:18.622Z,30.83
2023-05-24T23:05:45.694Z,33.28
2023-05-24T23:08:15.370Z,34.08
2023-05-24T23:10:45.453Z,34.22
2023-05-24T23:13:14.324Z,33.97
2023-05-24T23:15:41.264Z,31.65
2023-05-24T23:18:09.995Z,31.98
2023-05-24T23:20:40.097Z,31.13
2023-05-24T23:23:10.053Z,30.45
2023-05-24T23:25:37.620Z,30.27
2023-05-24T23:28:04.597Z,31.52
2023-05-24T23:30:31.322Z,30.95
2023-05-24T23:32:58.991Z,30.58
2023-05-24T23:35:25.684Z,30.98
2023-05-24T23:37:53.638Z,29.52
2023-05-24T23:40:20.840Z,30.90
2023-05-24T23:42:48.808Z,30.63
2023-05-24T23:45:15.538Z,31.40
2023-05-24T23:47:42.418Z,29.73
2023-05-24T23:50:09.736Z,30.98
2023-05-24T23:52:36.440Z,31.77
2023-05-24T23:55:03.372Z,32.53
2023-05-24T23:57:30.227Z,30.33
2023-05-24T23:59:56.964Z,33.05
